CDT,Max TemperatureF,Mean TemperatureF,Min TemperatureF,Max Dew PointF,MeanDew PointF,Min DewpointF,Max Humidity, Mean Humidity, Min Humidity, Max Sea Level PressureIn, Mean Sea Level PressureIn, Min Sea Level PressureIn, Max VisibilityMiles, Mean VisibilityMiles, Min VisibilityMiles, Max Wind SpeedMPH, Mean Wind SpeedMPH, Max Gust SpeedMPH,PrecipitationIn, CloudCover, Events, WindDirDegrees
2012-8-1,93,79,64,71,66,62,93,70,46,29.94,29.86,29.79,10,10,8,18,9,22,0.01,1,,216
2012-8-2,88,77,65,65,62,58,87,63,39,29.90,29.87,29.84,10,10,10,10,3,14,0.00,0,,306
2012-8-3,88,76,64,66,63,60,93,67,40,29.92,29.84,29.72,10,8,0,37,8,59,0.59,2,Fog-Rain-Thunderstorm,117
2012-8-4,78,68,58,64,60,53,93,68,43,30.01,29.85,29.74,10,10,8,23,9,28,0.00,4,,271
2012-8-5,77,65,53,57,52,46,93,66,38,30.22,30.14,30.04,10,10,10,16,7,22,0.00,0,,279
2012-8-6,86,70,54,67,59,52,93,68,42,30.13,30.04,29.96,10,10,10,14,5,18,0.00,0,,192
2012-8-7,84,72,59,64,58,52,93,64,34,30.04,30.01,29.94,10,9,2,13,4,16,0.00,0,,9
2012-8-8,72,65,57,62,59,57,93,80,66,30.05,30.02,29.98,10,10,9,17,6,23,0.02,5,Rain,55
2012-8-9,76,65,54,63,56,51,100,72,43,30.17,30.04,30.01,10,5,0,17,7,23,0.00,3,Fog,353
2012-8-10,77,64,50,54,50,48,93,66,38,30.22,30.17,30.12,10,10,10,13,4,17,0.00,0,,34
2012-8-11,77,61,45,58,48,45,100,69,38,30.16,30.11,30.03,10,6,0,9,2,12,0.00,0,Fog,203
2012-8-12,68,63,58,59,56,53,90,75,59,30.04,30.03,30.01,10,10,10,10,4,13,0.01,4,Rain,291
2012-8-13,81,67,53,61,55,52,100,68,36,30.05,30.02,29.99,10,8,0,15,5,21,0.00,2,Fog,331
2012-8-14,77,63,49,57,51,47,100,68,36,30.02,29.98,29.88,10,7,0,10,2,13,0.00,1,Fog,235
2012-8-15,81,70,58,69,61,54,86,70,54,29.88,29.78,29.72,10,10,10,21,9,30,T,4,Rain,147
2012-8-16,71,63,55,61,50,43,84,63,42,30.07,29.93,29.80,10,10,10,25,15,33,0.00,5,,317
2012-8-17,75,60,44,48,43,39,89,60,31,30.16,30.10,30.05,10,10,10,10,3,15,0.00,0,,324
2012-8-18,81,62,43,55,47,40,93,59,25,30.06,30.02,29.97,10,10,5,18,3,24,0.11,3,Rain-Thunderstorm,307
2012-8-19,76,61,46,55,49,41,100,65,29,30.07,30.04,30.01,10,10,7,13,4,16,0.00,2,,10
2012-8-20,79,61,42,51,45,39,100,63,26,30.08,30.05,30.01,10,10,9,12,2,15,0.00,0,,1
2012-8-21,82,64,45,55,48,44,93,62,30,30.09,30.05,29.99,10,10,10,14,4,20,0.00,0,,201
2012-8-22,83,67,50,63,56,49,100,71,42,30.00,29.94,29.86,10,9,1,22,7,25,0.44,2,Rain,135
2012-8-23,83,74,64,69,63,59,87,71,54,29.89,29.83,29.78,10,10,9,21,8,26,0.01,3,Rain-Thunderstorm,170
2012-8-24,88,73,57,70,65,56,97,76,55,29.86,29.82,29.80,10,10,5,16,6,21,0.00,0,,158
2012-8-25,79,73,66,65,64,62,87,76,64,29.96,29.91,29.86,10,9,7,21,9,29,T,6,Rain,187
2012-8-26,86,71,56,65,60,48,93,61,29,30.06,29.98,29.93,10,8,2,17,5,21,0.00,4,,234
2012-8-27,85,69,52,58,54,49,100,66,32,30.17,30.12,30.07,10,10,9,12,4,15,0.00,0,,331
2012-8-28,86,71,56,63,60,56,93,70,46,30.15,30.08,29.99,10,10,7,15,6,18,0.02,2,Rain-Thunderstorm,93
2012-8-29,91,78,64,65,63,61,93,66,38,29.99,29.87,29.75,10,10,9,16,8,22,0.00,0,,114
2012-8-30,85,74,62,64,61,55,73,58,43,29.97,29.79,29.69,10,10,9,17,7,20,0.01,1,Rain,247
2012-8-31,84,67,50,54,49,42,96,60,24,30.15,30.11,29.99,10,10,10,13,4,17,0.00,0,,39